createdAt,value
2023-04-05T00:02:49.532Z,2.67
2023-04-05T00:07:55.582Z,2.80
2023-04-05T00:13:01.348Z,2.83
2023-04-05T00:18:09.231Z,2.90
2023-04-05T00:23:14.831Z,2.92
2023-04-05T00:28:20.362Z,2.95
2023-04-05T00:33:28.128Z,3.15
2023-04-05T00:38:33.222Z,3.13
2023-04-05T00:43:38.369Z,3.15
2023-04-05T00:48:46.312Z,3.28
2023-04-05T00:53:53.197Z,3.22
2023-04-05T00:58:58.483Z,3.47
2023-04-05T01:04:07.852Z,3.85
2023-04-05T01:09:24.679Z,3.63
2023-04-05T01:14:29.703Z,3.80
2023-04-05T01:19:43.225Z,4.10
2023-04-05T01:25:15.056Z,2.90
2023-04-05T01:30:24.576Z,4.78
2023-04-05T01:35:42.763Z,2.97
2023-04-05T01:40:48.083Z,3.72
2023-04-05T01:45:55.865Z,3.97
2023-04-05T01:51:01.148Z,4.10
2023-04-05T01:56:06.353Z,3.45
2023-04-05T02:01:14.099Z,3.53
2023-04-05T02:06:19.329Z,3.65
2023-04-05T02:11:24.320Z,3.95
2023-04-05T02:16:33.640Z,3.92
2023-04-05T02:21:39.419Z,3.67
2023-04-05T02:26:44.565Z,4.65
2023-04-05T02:31:52.198Z,3.60
2023-04-05T02:36:57.318Z,3.78
2023-04-05T02:42:02.447Z,3.88
2023-04-05T02:47:10.192Z,3.95
2023-04-05T02:52:15.287Z,3.92
2023-04-05T02:57:21.166Z,3.63
2023-04-05T03:02:29.279Z,3.88
2023-04-05T03:07:35.828Z,3.22
2023-04-05T03:12:40.880Z,3.40
2023-04-05T03:17:48.817Z,3.25
2023-04-05T03:22:53.969Z,3.15
2023-04-05T03:27:59.065Z,3.83
2023-04-05T03:33:07.727Z,4.00
2023-04-05T03:38:12.931Z,3.65
2023-04-05T03:43:17.997Z,3.63
2023-04-05T03:48:25.934Z,3.75
2023-04-05T03:53:30.985Z,3.60
2023-04-05T03:58:36.011Z,3.22
2023-04-05T04:03:43.629Z,4.30
2023-04-05T04:08:48.701Z,4.68
2023-04-05T04:13:53.806Z,3.80
2023-04-05T04:19:01.514Z,4.72
2023-04-05T04:24:06.658Z,9.82
2023-04-05T04:29:13.177Z,13.80
2023-04-05T04:34:21.502Z,13.88
2023-04-05T04:39:27.752Z,13.55
2023-04-05T04:44:33.248Z,8.18
2023-04-05T04:49:41.807Z,5.45
2023-04-05T04:54:47.675Z,5.70
2023-04-05T04:59:52.678Z,5.40
2023-04-05T05:05:00.444Z,5.43
2023-04-05T05:10:05.801Z,5.40
2023-04-05T05:15:13.422Z,5.82
2023-04-05T05:20:21.203Z,5.20
2023-04-05T05:25:26.453Z,5.97
2023-04-05T05:30:32.262Z,5.60
2023-04-05T05:35:41.300Z,5.32
2023-04-05T05:40:46.852Z,4.85
2023-04-05T05:45:51.962Z,5.28
2023-04-05T05:51:09.851Z,5.00
2023-04-05T05:56:15.087Z,5.78
2023-04-05T06:01:23.465Z,5.72
2023-04-05T06:06:31.259Z,5.40
2023-04-05T06:11:40.950Z,5.75
2023-04-05T06:16:51.597Z,5.68
2023-04-05T06:22:01.105Z,5.50
2023-04-05T06:27:06.308Z,4.97
2023-04-05T06:32:11.417Z,5.65
2023-04-05T06:37:19.081Z,5.13
2023-04-05T06:42:26.391Z,5.00
2023-04-05T06:47:37.429Z,4.75
2023-04-05T06:52:45.081Z,6.35
2023-04-05T06:57:50.436Z,5.68
2023-04-05T07:02:55.657Z,7.03
2023-04-05T07:08:03.729Z,5.47
2023-04-05T07:13:09.075Z,4.85
2023-04-05T07:18:15.947Z,6.72
2023-04-05T07:23:23.779Z,5.78
2023-04-05T07:28:29.010Z,5.72
2023-04-05T07:33:34.245Z,5.80
2023-04-05T07:38:42.156Z,6.47
2023-04-05T07:43:47.346Z,4.88
2023-04-05T07:48:52.600Z,5.18
2023-04-05T07:54:03.069Z,6.05
2023-04-05T07:59:08.547Z,5.63
2023-04-05T08:04:13.761Z,4.35
2023-04-05T08:09:21.586Z,4.72
2023-04-05T08:14:26.665Z,4.50
2023-04-05T08:19:31.934Z,4.93
2023-04-05T08:24:40.034Z,5.03
2023-04-05T08:29:45.183Z,4.15
2023-04-05T08:34:50.298Z,4.85
2023-04-05T08:39:58.005Z,5.03
2023-04-05T08:45:03.828Z,5.18
2023-04-05T08:50:10.315Z,4.75
2023-04-05T08:55:18.275Z,4.70
2023-04-05T09:00:23.767Z,6.25
2023-04-05T09:05:29.311Z,7.43
2023-04-05T09:10:37.192Z,7.03
2023-04-05T09:15:42.557Z,5.20
2023-04-05T09:20:47.670Z,8.02
2023-04-05T09:25:55.569Z,6.18
2023-04-05T09:31:00.635Z,5.43
2023-04-05T09:36:06.035Z,5.38
2023-04-05T09:41:14.839Z,6.45
2023-04-05T09:46:34.360Z,4.75
2023-04-05T09:51:40.833Z,5.78
2023-04-05T09:56:58.590Z,6.57
2023-04-05T10:02:04.203Z,4.40
2023-04-05T10:07:10.466Z,4.97
2023-04-05T10:12:24.638Z,5.30
2023-04-05T10:17:32.381Z,6.75
2023-04-05T10:22:41.523Z,5.32
2023-04-05T10:27:51.893Z,5.22
2023-04-05T10:38:15.986Z,5.40
2023-04-05T10:43:25.104Z,4.90
2023-04-05T10:48:40.428Z,5.22
2023-04-05T10:53:45.511Z,5.78
2023-04-05T10:58:54.265Z,6.50
2023-04-05T11:03:59.453Z,5.80
2023-04-05T11:09:15.549Z,6.35
2023-04-05T11:14:26.036Z,5.45
2023-04-05T11:19:52.609Z,5.88
2023-04-05T11:24:59.584Z,5.72
2023-04-05T11:30:08.756Z,4.90
2023-04-05T11:35:18.085Z,5.28
2023-04-05T11:40:31.418Z,6.07
2023-04-05T11:45:40.317Z,6.18
2023-04-05T11:50:45.519Z,6.70
2023-04-05T11:55:52.033Z,6.20
2023-04-05T12:01:03.893Z,5.13
2023-04-05T12:06:10.221Z,5.47
2023-04-05T12:11:16.027Z,7.43
2023-04-05T12:16:23.986Z,5.82
2023-04-05T12:21:30.855Z,8.57
2023-04-05T12:26:38.088Z,5.72
2023-04-05T12:31:46.887Z,7.05
2023-04-05T12:36:52.673Z,7.85
2023-04-05T12:42:02.642Z,9.18
2023-04-05T12:47:11.393Z,6.47
2023-04-05T12:52:22.964Z,5.72
2023-04-05T12:57:35.343Z,6.38
2023-04-05T13:02:43.136Z,9.07
2023-04-05T13:07:48.298Z,6.75
2023-04-05T13:12:53.625Z,4.97
2023-04-05T13:18:01.356Z,6.03
2023-04-05T13:23:11.162Z,7.22
2023-04-05T13:28:16.620Z,5.20
2023-04-05T13:33:24.414Z,5.10
2023-04-05T13:38:29.662Z,5.40
2023-04-05T13:43:34.852Z,7.32
2023-04-05T13:48:42.673Z,4.70
2023-04-05T13:53:47.783Z,5.07
2023-04-05T13:58:52.950Z,4.20
2023-04-05T14:04:00.684Z,5.10
2023-04-05T14:09:05.983Z,4.80
2023-04-05T14:14:11.050Z,4.85
2023-04-05T14:19:19.893Z,4.30
2023-04-05T14:24:25.184Z,5.00
2023-04-05T14:29:30.579Z,6.18
2023-04-05T14:34:38.351Z,6.53
2023-04-05T14:39:43.642Z,6.57
2023-04-05T14:44:48.831Z,5.93
2023-04-05T14:49:56.622Z,5.57
2023-04-05T14:55:01.811Z,7.43
2023-04-05T15:00:08.520Z,10.52
2023-04-05T15:05:16.616Z,12.63
2023-04-05T15:10:22.000Z,11.98
2023-04-05T15:15:27.209Z,8.68
2023-04-05T15:20:35.227Z,8.93
2023-04-05T15:25:40.753Z,9.20
2023-04-05T15:30:46.313Z,12.05
2023-04-05T15:35:54.120Z,9.98
2023-04-05T15:40:59.392Z,8.48
2023-04-05T15:46:05.360Z,9.90
2023-04-05T15:51:13.149Z,9.52
2023-04-05T15:56:18.543Z,6.93
2023-04-05T16:01:23.808Z,6.38
2023-04-05T16:06:31.914Z,8.23
2023-04-05T16:11:37.102Z,8.45
2023-04-05T16:16:53.279Z,9.52
2023-04-05T16:22:03.675Z,12.25
2023-04-05T16:27:09.080Z,6.72
2023-04-05T16:32:14.443Z,7.32
2023-04-05T16:37:22.494Z,6.43
2023-04-05T16:42:27.901Z,6.45
2023-04-05T16:47:33.225Z,7.40
2023-04-05T16:52:41.077Z,8.43
2023-04-05T16:57:46.285Z,7.10
2023-04-05T17:02:52.187Z,11.80
2023-04-05T17:08:00.147Z,14.45
2023-04-05T17:13:05.365Z,13.82
2023-04-05T17:18:10.676Z,27.20
2023-04-05T17:23:18.900Z,26.35
2023-04-05T17:28:24.119Z,21.77
2023-04-05T17:33:29.444Z,25.60
2023-04-05T17:38:37.463Z,21.73
2023-04-05T17:43:42.741Z,23.42
2023-04-05T17:48:47.970Z,21.40
2023-04-05T17:53:55.903Z,24.60
2023-04-05T17:59:01.257Z,30.92
2023-04-05T18:04:08.277Z,31.25
2023-04-05T18:09:18.115Z,33.90
2023-04-05T18:14:23.389Z,26.27
2023-04-05T18:19:28.654Z,38.13
2023-04-05T18:24:36.524Z,36.38
2023-04-05T18:29:41.834Z,24.85
2023-04-05T18:34:47.194Z,17.95
2023-04-05T18:39:55.039Z,19.50
2023-04-05T18:45:00.681Z,16.15
2023-04-05T18:50:07.955Z,19.65
2023-04-05T18:55:17.400Z,13.80
2023-04-05T19:00:23.083Z,14.90
2023-04-05T19:05:28.385Z,13.82
2023-04-05T19:10:36.941Z,13.00
2023-04-05T19:15:42.443Z,13.27
2023-04-05T19:20:47.835Z,11.65
2023-04-05T19:25:55.860Z,11.18
2023-04-05T19:31:01.147Z,10.60
2023-04-05T19:36:06.626Z,11.25
2023-04-05T19:41:15.032Z,10.75
2023-04-05T19:46:20.437Z,11.02
2023-04-05T19:51:30.021Z,10.30
2023-04-05T19:56:39.440Z,10.57
2023-04-05T20:01:47.611Z,11.20
2023-04-05T20:06:55.495Z,12.13
2023-04-05T20:12:05.963Z,9.35
2023-04-05T20:17:12.627Z,13.27
2023-04-05T20:22:17.820Z,11.38
2023-04-05T20:27:25.629Z,8.82
2023-04-05T20:32:30.959Z,9.80
2023-04-05T20:37:36.541Z,9.82
2023-04-05T20:42:44.323Z,8.63
2023-04-05T20:47:49.605Z,8.65
2023-04-05T20:52:54.819Z,9.10
2023-04-05T20:58:02.644Z,8.90
2023-04-05T21:03:07.862Z,7.82
2023-04-05T21:08:13.355Z,7.43
2023-04-05T21:13:21.269Z,7.43
2023-04-05T21:18:27.311Z,7.68
2023-04-05T21:23:34.654Z,8.77
2023-04-05T21:28:42.533Z,9.25
2023-04-05T21:33:48.161Z,30.55
2023-04-05T21:38:53.312Z,12.73
2023-04-05T21:44:01.316Z,21.15
2023-04-05T21:49:06.752Z,12.73
2023-04-05T21:54:12.366Z,11.20
2023-04-05T21:59:20.293Z,13.85
2023-04-05T22:04:26.737Z,12.85
2023-04-05T22:09:32.076Z,12.32
2023-04-05T22:14:39.892Z,11.38
2023-04-05T22:19:46.932Z,11.52
2023-04-05T22:24:52.150Z,11.13
2023-04-05T22:30:00.750Z,12.13
2023-04-05T22:35:07.073Z,11.82
2023-04-05T22:40:13.834Z,12.48
2023-04-05T22:45:21.632Z,11.95
2023-04-05T22:50:26.900Z,11.38
2023-04-05T22:55:32.655Z,11.43
2023-04-05T23:00:40.842Z,12.23
2023-04-05T23:05:46.024Z,11.05
2023-04-05T23:10:51.703Z,12.60
2023-04-05T23:15:59.523Z,11.55
2023-04-05T23:21:04.742Z,14.65
2023-04-05T23:26:10.066Z,15.10
2023-04-05T23:31:18.063Z,16.35
2023-04-05T23:36:24.256Z,17.80
2023-04-05T23:41:29.473Z,15.40
2023-04-05T23:46:37.515Z,20.25
2023-04-05T23:51:43.257Z,15.13
2023-04-05T23:56:48.472Z,17.55
